08FD weather

Sunniland Ranch Airport
Okeechobee, Florida, United States

Public forecast

Using degrees Fahrenheit for public forecast. Weather courtesy of forecast.io.

Closest aviation weather report (METAR) to Sunniland Ranch Airport

Closest report is Okeechobee County Airport, 7.3 nm (13.5 km) SW. Retrieved 2019/10/23 22:35 UTC (16 minutes ago):

KOBE 232235Z AUTO 05009G14KT 10SM SCT036 26/22 A3003 RMK AO2

Closest aviation forecast (TAF) to Sunniland Ranch Airport

Closest forecast is St Lucie County International Airport, 23.0 nm (42.5 km) ENE. Retrieved 2019/10/23 18:48 UTC (4 hours ago):

TAF KFPR 231746Z 2318/2418 02011G17KT P6SM VCTS BKN035CB BKN050 BKN090 TEMPO 2318/2319 3SM TSRA BKN025CB FM232000 02010KT P6SM VCSH BKN035 BKN050 FM240100 05005KT P6SM VCSH SCT020 BKN035 FM241400 10011KT P6SM SCT025 BKN040